createdAt,value
2019-04-05T00:02:07.396Z,21.23
2019-04-05T00:04:36.440Z,23.85
2019-04-05T00:07:05.431Z,23.98
2019-04-05T00:09:34.681Z,27.73
2019-04-05T00:12:03.985Z,22.77
2019-04-05T00:14:33.283Z,20.27
2019-04-05T00:17:02.582Z,20.82
2019-04-05T00:19:31.884Z,18.73
2019-04-05T00:22:01.187Z,25.40
2019-04-05T00:24:30.484Z,19.90
2019-04-05T00:26:59.784Z,23.40
2019-04-05T00:29:29.093Z,25.55
2019-04-05T00:31:58.385Z,20.20
2019-04-05T00:34:27.687Z,18.90
2019-04-05T00:36:56.986Z,22.85
2019-04-05T00:39:26.336Z,21.20
2019-04-05T00:42:02.511Z,22.50
2019-04-05T00:44:30.733Z,26.12
2019-04-05T00:47:00.024Z,20.05
2019-04-05T00:49:29.325Z,21.60
2019-04-05T00:51:58.625Z,18.52
2019-04-05T00:54:27.926Z,25.20
2019-04-05T00:56:57.045Z,21.07
2019-04-05T00:59:26.219Z,23.57
2019-04-05T01:01:55.519Z,19.60
2019-04-05T01:04:24.822Z,19.65
2019-04-05T01:06:54.123Z,21.62
2019-04-05T01:09:23.422Z,26.20
2019-04-05T01:11:53.029Z,20.15
2019-04-05T01:14:22.637Z,26.20
2019-04-05T01:16:51.938Z,19.25
2019-04-05T01:19:30.411Z,16.95
2019-04-05T01:22:02.519Z,19.77
2019-04-05T01:24:31.874Z,19.65
2019-04-05T01:27:01.432Z,26.27
2019-04-05T01:29:30.727Z,22.98
2019-04-05T01:32:00.029Z,19.67
2019-04-05T01:34:29.330Z,21.68
2019-04-05T01:36:58.960Z,19.48
2019-04-05T01:39:28.256Z,24.52
2019-04-05T01:41:57.849Z,21.48
2019-04-05T01:44:27.758Z,25.37
2019-04-05T01:46:57.059Z,21.77
2019-04-05T01:49:26.360Z,21.80
2019-04-05T01:51:55.660Z,22.45
2019-04-05T01:54:24.960Z,22.00
2019-04-05T01:56:54.039Z,20.55
2019-04-05T01:59:23.255Z,23.22
2019-04-05T02:01:52.553Z,22.40
2019-04-05T02:04:21.854Z,20.30
2019-04-05T02:06:50.934Z,19.37
2019-04-05T02:09:20.148Z,21.35
2019-04-05T02:11:49.755Z,19.67
2019-04-05T02:14:18.748Z,22.40
2019-04-05T02:16:48.663Z,23.05
2019-04-05T02:19:17.964Z,20.73
2019-04-05T02:21:47.266Z,20.68
2019-04-05T02:24:16.564Z,18.45
2019-04-05T02:26:45.865Z,18.82
2019-04-05T02:29:15.169Z,20.82
2019-04-05T02:31:44.774Z,20.88
2019-04-05T02:34:14.077Z,25.85
2019-04-05T02:36:44.303Z,19.67
2019-04-05T02:39:13.598Z,24.52
2019-04-05T02:41:43.208Z,21.07
2019-04-05T02:44:14.658Z,26.55
2019-04-05T02:46:46.443Z,22.20
2019-04-05T02:49:16.946Z,18.07
2019-04-05T02:51:49.348Z,20.72
2019-04-05T02:54:19.846Z,19.45
2019-04-05T02:56:50.685Z,23.32
2019-04-05T03:01:48.668Z,18.10
2019-04-05T03:04:17.967Z,18.95
2019-04-05T03:06:49.426Z,20.25
2019-04-05T03:09:19.950Z,22.07
2019-04-05T03:11:50.478Z,18.50
2019-04-05T03:14:21.619Z,28.20
2019-04-05T03:16:53.701Z,17.42
2019-04-05T03:19:25.769Z,17.30
2019-04-05T03:21:57.819Z,23.15
2019-04-05T03:24:30.220Z,18.32
2019-04-05T03:27:02.552Z,19.32
2019-04-05T03:29:33.091Z,18.00
2019-04-05T03:32:04.371Z,20.97
2019-04-05T03:34:34.457Z,18.17
2019-04-05T03:37:04.372Z,20.95
2019-04-05T03:39:34.899Z,29.18
2019-04-05T03:42:04.816Z,22.20
2019-04-05T03:44:34.125Z,25.93
2019-04-05T03:47:04.956Z,23.70
2019-04-05T03:49:34.869Z,19.57
2019-04-05T03:52:06.029Z,24.47
2019-04-05T03:54:35.927Z,22.67
2019-04-05T03:57:05.532Z,20.17
2019-04-05T03:59:34.832Z,16.85
2019-04-05T04:02:05.057Z,18.48
2019-04-05T04:04:34.676Z,19.17
2019-04-05T04:07:04.587Z,26.87
2019-04-05T04:09:34.186Z,25.35
2019-04-05T04:12:04.100Z,25.97
2019-04-05T04:14:33.707Z,23.52
2019-04-05T04:17:12.222Z,23.80
2019-04-05T04:19:34.460Z,17.70
2019-04-05T04:22:24.655Z,22.22
2019-04-05T04:24:55.179Z,21.52
2019-04-05T04:27:25.401Z,26.62
2019-04-05T04:29:55.316Z,20.68
2019-04-05T04:32:26.153Z,24.53
2019-04-05T04:37:27.216Z,20.82
2019-04-05T04:39:55.895Z,25.57
2019-04-05T04:42:26.713Z,23.92
2019-04-05T04:47:26.747Z,30.43
2019-04-05T04:49:57.403Z,22.37
2019-04-05T04:52:29.979Z,22.07
2019-04-05T04:54:59.071Z,21.90
2019-04-05T04:57:28.987Z,21.20
2019-04-05T04:59:58.435Z,20.27
2019-04-05T05:02:27.894Z,21.00
2019-04-05T05:04:57.198Z,21.37
2019-04-05T05:07:26.482Z,21.87
2019-04-05T05:09:56.106Z,25.77
2019-04-05T05:12:26.017Z,22.25
2019-04-05T05:14:55.661Z,20.40
2019-04-05T05:17:37.507Z,27.73
2019-04-05T05:19:55.763Z,27.32
2019-04-05T05:22:25.370Z,19.12
2019-04-05T05:24:55.286Z,27.02
2019-04-05T05:27:24.584Z,26.93
2019-04-05T05:29:54.500Z,27.62
2019-04-05T05:32:24.108Z,30.47
2019-04-05T05:35:01.871Z,25.00
2019-04-05T05:37:24.858Z,25.68
2019-04-05T05:39:54.158Z,24.70
2019-04-05T05:42:23.464Z,22.15
2019-04-05T05:44:52.499Z,27.15
2019-04-05T05:47:21.754Z,24.57
2019-04-05T05:49:51.054Z,21.10
2019-04-05T05:52:21.430Z,25.88
2019-04-05T05:54:50.576Z,25.43
2019-04-05T05:57:19.618Z,19.52
2019-04-05T05:59:48.886Z,22.55
2019-04-05T06:02:18.171Z,20.00
2019-04-05T06:04:47.471Z,20.30
2019-04-05T06:07:19.939Z,23.95
2019-04-05T06:09:47.789Z,21.45
2019-04-05T06:12:19.756Z,24.70
2019-04-05T06:14:52.037Z,23.07
2019-04-05T06:17:21.040Z,24.15
2019-04-05T06:19:51.669Z,19.37
2019-04-05T06:22:20.867Z,26.82
2019-04-05T06:24:50.244Z,21.73
2019-04-05T06:27:19.469Z,26.87
2019-04-05T06:29:48.769Z,29.32
2019-04-05T06:32:18.069Z,27.45
2019-04-05T06:34:47.370Z,27.32
2019-04-05T06:37:19.743Z,26.65
2019-04-05T06:39:49.043Z,27.87
2019-04-05T06:42:18.345Z,23.62
2019-04-05T06:44:47.644Z,32.45
2019-04-05T06:47:16.950Z,30.90
2019-04-05T06:49:46.245Z,24.80
2019-04-05T06:52:15.556Z,26.55
2019-04-05T06:54:44.845Z,30.88
2019-04-05T06:57:14.146Z,24.80
2019-04-05T06:59:43.451Z,25.65
2019-04-05T07:02:12.746Z,31.82
2019-04-05T07:04:42.049Z,28.67
2019-04-05T07:07:11.350Z,31.62
2019-04-05T07:09:40.650Z,29.37
2019-04-05T07:12:09.950Z,31.80
2019-04-05T07:14:39.248Z,30.17
2019-04-05T07:17:08.554Z,25.45
2019-04-05T07:19:37.849Z,32.40
2019-04-05T07:22:07.150Z,35.40
2019-04-05T07:24:36.451Z,29.30
2019-04-05T07:27:05.750Z,23.30
2019-04-05T07:29:35.053Z,26.68
2019-04-05T07:32:04.352Z,24.67
2019-04-05T07:34:33.653Z,30.30
2019-04-05T07:37:02.952Z,27.07
2019-04-05T07:39:32.252Z,23.45
2019-04-05T07:42:01.554Z,30.88
2019-04-05T07:44:30.854Z,22.70
2019-04-05T07:47:00.153Z,31.15
2019-04-05T07:49:29.455Z,35.13
2019-04-05T07:51:58.755Z,29.57
2019-04-05T07:54:28.055Z,35.63
2019-04-05T07:56:57.356Z,32.00
2019-04-05T07:59:26.660Z,39.18
2019-04-05T08:01:55.956Z,31.68
2019-04-05T08:04:25.290Z,38.48
2019-04-05T08:06:56.709Z,26.20
2019-04-05T08:09:27.237Z,23.85
2019-04-05T08:11:56.844Z,22.93
2019-04-05T08:14:27.374Z,21.70
2019-04-05T08:16:56.677Z,26.90
2019-04-05T08:19:25.670Z,30.20
2019-04-05T08:21:54.970Z,22.67
2019-04-05T08:24:24.269Z,27.00
2019-04-05T08:26:53.569Z,22.52
2019-04-05T08:29:22.872Z,25.90
2019-04-05T08:31:52.171Z,24.63
2019-04-05T08:34:21.470Z,24.85
2019-04-05T08:36:52.619Z,23.62
2019-04-05T08:39:21.919Z,24.05
2019-04-05T08:41:51.216Z,29.55
2019-04-05T08:44:20.518Z,32.73
2019-04-05T08:46:49.817Z,23.70
2019-04-05T08:49:19.118Z,21.37
2019-04-05T08:51:48.418Z,19.82
2019-04-05T08:54:17.718Z,23.52
2019-04-05T08:56:47.023Z,15.70
2019-04-05T08:59:16.321Z,27.93
2019-04-05T09:01:45.621Z,18.12
2019-04-05T09:04:14.920Z,18.02
2019-04-05T09:06:44.222Z,20.57
2019-04-05T09:09:13.519Z,20.57
2019-04-05T09:11:42.819Z,17.95
2019-04-05T09:14:12.120Z,21.07
2019-04-05T09:16:41.432Z,25.65
2019-04-05T09:19:22.741Z,23.25
2019-04-05T09:21:41.255Z,15.93
2019-04-05T09:24:10.344Z,17.80
2019-04-05T09:26:39.544Z,15.28
2019-04-05T09:29:09.443Z,25.70
2019-04-05T09:31:39.065Z,19.50
2019-04-05T09:34:08.367Z,20.95
2019-04-05T09:36:37.668Z,18.07
2019-04-05T09:39:13.830Z,16.95
2019-04-05T09:41:41.538Z,25.12
2019-04-05T09:44:10.586Z,20.37
2019-04-05T09:46:46.947Z,16.45
2019-04-05T09:49:10.313Z,22.17
2019-04-05T09:51:39.614Z,24.15
2019-04-05T09:54:08.914Z,20.12
2019-04-05T09:56:38.214Z,13.60
2019-04-05T09:59:07.516Z,19.17
2019-04-05T10:01:36.815Z,16.17
2019-04-05T10:04:06.117Z,22.17
2019-04-05T10:06:35.416Z,15.43
2019-04-05T10:09:06.560Z,13.60
2019-04-05T10:11:35.860Z,20.25
2019-04-05T10:14:05.471Z,15.60
2019-04-05T10:16:34.768Z,14.98
2019-04-05T10:19:04.068Z,20.90
2019-04-05T10:21:33.368Z,17.90
2019-04-05T10:24:02.670Z,19.55
2019-04-05T10:26:31.970Z,16.52
2019-04-05T10:29:01.065Z,16.87
2019-04-05T10:31:30.263Z,20.25
2019-04-05T10:33:59.564Z,17.40
2019-04-05T10:36:34.481Z,17.17
2019-04-05T10:39:05.212Z,17.60
2019-04-05T10:41:34.538Z,19.60
2019-04-05T10:44:08.753Z,13.50
2019-04-05T10:46:38.354Z,21.27
2019-04-05T10:49:07.658Z,14.25
2019-04-05T10:51:36.955Z,17.95
2019-04-05T10:54:09.173Z,16.25
2019-04-05T10:56:42.314Z,19.35
2019-04-05T10:59:14.932Z,16.37
2019-04-05T11:01:47.366Z,13.90
2019-04-05T11:04:19.433Z,14.47
2019-04-05T11:06:57.169Z,19.75
2019-04-05T11:09:26.328Z,14.13
2019-04-05T11:11:55.634Z,11.78
2019-04-05T11:14:30.150Z,14.93
2019-04-05T11:16:59.460Z,13.62
2019-04-05T11:19:30.224Z,15.55
2019-04-05T11:21:59.281Z,16.20
2019-04-05T11:24:28.581Z,13.60
2019-04-05T11:26:57.887Z,13.32
2019-04-05T11:29:27.182Z,13.75
2019-04-05T11:31:57.694Z,17.10
2019-04-05T11:34:28.241Z,17.05
2019-04-05T11:36:57.541Z,14.38
2019-04-05T11:39:27.457Z,14.63
2019-04-05T11:41:58.599Z,15.43
2019-04-05T11:44:29.134Z,15.32
2019-04-05T11:46:58.738Z,18.50
2019-04-05T11:49:30.584Z,14.65
2019-04-05T11:51:59.795Z,13.68
2019-04-05T11:54:29.097Z,16.10
2019-04-05T11:56:58.400Z,21.68
2019-04-05T11:59:27.698Z,18.25
2019-04-05T12:02:10.823Z,13.62
2019-04-05T12:04:42.633Z,12.58
2019-04-05T12:07:10.655Z,13.45
2019-04-05T12:09:39.953Z,15.43
2019-04-05T12:12:10.025Z,18.00
2019-04-05T12:14:39.167Z,19.25
2019-04-05T12:17:09.691Z,16.17
2019-04-05T12:19:39.305Z,14.65
2019-04-05T12:22:09.264Z,14.75
2019-04-05T12:24:41.590Z,22.17
2019-04-05T12:27:10.891Z,19.23
2019-04-05T12:29:40.194Z,14.78
2019-04-05T12:32:09.498Z,16.80
2019-04-05T12:34:38.791Z,18.12
2019-04-05T12:37:08.093Z,19.30
2019-04-05T12:39:38.930Z,23.90
2019-04-05T12:44:36.609Z,12.43
2019-04-05T12:47:06.215Z,20.23
2019-04-05T12:49:35.518Z,14.15
2019-04-05T12:52:05.124Z,14.25
2019-04-05T12:54:34.424Z,13.55
2019-04-05T12:57:03.727Z,11.75
2019-04-05T12:59:33.026Z,13.98
2019-04-05T13:02:02.338Z,13.00
2019-04-05T13:04:33.163Z,24.20
2019-04-05T13:09:32.234Z,12.07
2019-04-05T13:12:02.243Z,13.75
2019-04-05T13:14:31.593Z,13.20
2019-04-05T13:17:04.282Z,15.25
2019-04-05T13:19:33.572Z,10.63
2019-04-05T13:22:02.873Z,12.63
2019-04-05T13:24:34.026Z,12.90
2019-04-05T13:27:05.495Z,15.43
2019-04-05T13:29:33.846Z,16.30
2019-04-05T13:32:03.153Z,12.80
2019-04-05T13:34:32.090Z,15.63
2019-04-05T13:37:01.939Z,12.13
2019-04-05T13:39:31.662Z,10.85
2019-04-05T13:42:01.806Z,15.70
2019-04-05T13:47:01.714Z,17.37
2019-04-05T13:49:31.020Z,14.63
2019-04-05T13:52:00.316Z,22.02
2019-04-05T13:54:29.618Z,17.98
2019-04-05T13:56:58.930Z,11.00
2019-04-05T13:59:30.673Z,17.80
2019-04-05T14:02:06.066Z,17.95
2019-04-05T14:04:30.506Z,17.85
2019-04-05T14:06:59.784Z,15.35
2019-04-05T14:09:31.572Z,17.30
2019-04-05T14:11:59.636Z,25.15
2019-04-05T14:14:28.935Z,13.58
2019-04-05T14:16:58.239Z,14.20
2019-04-05T14:19:28.767Z,21.30
2019-04-05T14:22:07.820Z,17.05
2019-04-05T14:24:31.665Z,20.20
2019-04-05T14:27:02.835Z,14.38
2019-04-05T14:29:33.272Z,19.27
2019-04-05T14:32:19.457Z,14.90
2019-04-05T14:34:32.861Z,17.07
2019-04-05T14:37:02.162Z,16.62
2019-04-05T14:39:31.461Z,17.10
2019-04-05T14:42:09.745Z,13.78
2019-04-05T14:47:02.128Z,22.87
2019-04-05T14:49:31.427Z,20.85
2019-04-05T14:52:01.173Z,13.50
2019-04-05T14:54:31.564Z,16.77
2019-04-05T14:57:05.549Z,17.82
2019-04-05T14:59:32.817Z,15.35
2019-04-05T15:02:01.924Z,16.25
2019-04-05T15:04:31.226Z,17.82
2019-04-05T15:07:01.357Z,14.45
2019-04-05T15:09:31.056Z,11.88
2019-04-05T15:12:00.356Z,17.32
2019-04-05T15:14:29.654Z,14.83
2019-04-05T15:16:58.733Z,16.77
2019-04-05T15:19:27.949Z,14.90
2019-04-05T15:22:05.728Z,10.63
2019-04-05T15:24:27.777Z,11.40
2019-04-05T15:26:57.082Z,16.62
2019-04-05T15:29:26.629Z,14.58
2019-04-05T15:31:56.585Z,13.72
2019-04-05T15:34:28.445Z,15.15
2019-04-05T15:36:56.432Z,15.23
2019-04-05T15:39:25.731Z,13.20
2019-04-05T15:41:55.953Z,14.53
2019-04-05T15:44:25.254Z,15.58
2019-04-05T15:46:54.553Z,15.78
2019-04-05T15:49:23.856Z,11.35
2019-04-05T15:51:58.737Z,13.88
2019-04-05T15:54:29.029Z,14.05
2019-04-05T15:56:57.899Z,15.40
2019-04-05T15:59:27.203Z,13.75
2019-04-05T16:01:56.500Z,13.72
2019-04-05T16:04:25.800Z,14.40
2019-04-05T16:06:55.102Z,12.40
2019-04-05T16:09:24.181Z,24.98
2019-04-05T16:11:53.137Z,46.68
2019-04-05T16:14:23.309Z,31.82
2019-04-05T16:16:53.656Z,57.65
2019-04-05T16:19:23.139Z,78.70
2019-04-05T16:21:52.439Z,92.95
2019-04-05T16:24:21.435Z,23.10
2019-04-05T16:26:50.733Z,14.18
2019-04-05T16:29:39.080Z,14.05
2019-04-05T16:32:08.380Z,20.10
2019-04-05T16:34:37.681Z,13.50
2019-04-05T16:37:09.440Z,11.38
2019-04-05T16:39:43.348Z,12.13
2019-04-05T16:42:13.575Z,11.73
2019-04-05T16:44:42.893Z,13.75
2019-04-05T16:47:11.865Z,13.88
2019-04-05T16:49:41.165Z,15.95
2019-04-05T16:52:10.457Z,11.20
2019-04-05T16:54:39.764Z,11.15
2019-04-05T16:57:08.758Z,12.37
2019-04-05T16:59:38.062Z,11.25
2019-04-05T17:02:07.359Z,12.33
2019-04-05T17:04:36.454Z,15.68
2019-04-05T17:07:05.468Z,16.32
2019-04-05T17:09:34.648Z,15.48
2019-04-05T17:12:06.600Z,12.58
2019-04-05T17:14:46.151Z,16.02
2019-04-05T17:17:15.453Z,17.10
2019-04-05T17:19:44.763Z,13.18
2019-04-05T17:22:14.051Z,13.15
2019-04-05T17:24:43.356Z,15.50
2019-04-05T17:27:13.339Z,20.72
2019-04-05T17:29:42.566Z,18.77
2019-04-05T17:32:11.867Z,14.63
2019-04-05T17:34:41.212Z,14.50
2019-04-05T17:37:10.471Z,13.95
2019-04-05T17:39:39.563Z,15.98
2019-04-05T17:42:08.761Z,17.92
2019-04-05T17:44:38.675Z,16.57
2019-04-05T17:47:07.976Z,17.05
2019-04-05T17:49:37.071Z,14.15
2019-04-05T17:52:06.577Z,18.20
2019-04-05T17:54:35.877Z,17.50
2019-04-05T17:57:06.714Z,14.15
2019-04-05T17:59:38.217Z,15.75
2019-04-05T18:02:07.465Z,14.93
2019-04-05T18:04:38.198Z,14.23
2019-04-05T18:07:07.295Z,14.40
2019-04-05T18:09:36.595Z,14.50
2019-04-05T18:12:06.183Z,20.10
2019-04-05T18:14:35.503Z,14.43
2019-04-05T18:17:04.785Z,18.30
2019-04-05T18:19:35.332Z,20.70
2019-04-05T18:22:04.633Z,18.98
2019-04-05T18:24:34.650Z,15.28
2019-04-05T18:27:03.849Z,14.25
2019-04-05T18:29:32.943Z,18.65
2019-04-05T18:32:02.143Z,23.73
2019-04-05T18:34:33.535Z,16.42
2019-04-05T18:37:02.881Z,29.40
2019-04-05T18:39:32.195Z,15.53
2019-04-05T18:42:01.494Z,18.67
2019-04-05T18:44:30.794Z,14.00
2019-04-05T18:47:00.095Z,20.75
2019-04-05T18:49:29.396Z,22.75
2019-04-05T18:51:58.698Z,19.48
2019-04-05T18:54:28.007Z,20.45
2019-04-05T18:56:59.142Z,17.62
2019-04-05T18:59:28.443Z,24.95
2019-04-05T19:01:57.779Z,23.62
2019-04-05T19:04:34.301Z,23.47
2019-04-05T19:07:09.248Z,28.30
2019-04-05T19:09:38.339Z,28.00
2019-04-05T19:12:07.538Z,27.45
2019-04-05T19:14:36.838Z,24.25
2019-04-05T19:17:06.141Z,26.05
2019-04-05T19:19:35.233Z,28.27
2019-04-05T19:22:09.041Z,21.25
2019-04-05T19:24:38.340Z,22.90
2019-04-05T19:27:28.225Z,18.70
2019-04-05T19:29:57.524Z,22.35
2019-04-05T19:50:06.059Z,17.12
2019-04-05T19:55:03.757Z,19.42
2019-04-05T19:57:34.268Z,20.60
2019-04-05T20:00:03.593Z,31.82
2019-04-05T20:02:32.868Z,24.47
2019-04-05T20:05:02.204Z,22.13
2019-04-05T20:07:31.468Z,22.02
2019-04-05T20:10:00.770Z,19.32
2019-04-05T20:12:30.070Z,24.27
2019-04-05T20:14:59.377Z,22.00
2019-04-05T20:17:28.670Z,24.27
2019-04-05T20:19:58.586Z,24.80
2019-04-05T20:22:27.886Z,23.43
2019-04-05T20:24:57.187Z,18.02
2019-04-05T20:27:26.486Z,24.52
2019-04-05T20:29:55.786Z,26.10
2019-04-05T20:32:25.087Z,23.73
2019-04-05T20:34:55.923Z,21.95
2019-04-05T20:39:53.605Z,31.62
2019-04-05T20:42:22.903Z,17.20
2019-04-05T20:44:52.207Z,32.03
2019-04-05T20:47:22.425Z,20.20
2019-04-05T20:49:51.726Z,26.60
2019-04-05T20:52:21.026Z,23.15
2019-04-05T20:54:50.327Z,26.57
2019-04-05T20:57:19.629Z,20.85
2019-04-05T20:59:48.928Z,27.70
2019-04-05T21:02:18.229Z,23.75
2019-04-05T21:04:47.530Z,22.87
2019-04-05T21:07:19.594Z,20.57
2019-04-05T21:09:48.948Z,28.62
2019-04-05T21:12:18.197Z,22.40
2019-04-05T21:14:47.495Z,28.92
2019-04-05T21:17:16.795Z,28.42
2019-04-05T21:19:46.099Z,24.92
2019-04-05T21:22:15.397Z,26.12
2019-04-05T21:24:44.437Z,28.62
2019-04-05T21:27:13.689Z,19.75
2019-04-05T21:29:42.689Z,24.47
2019-04-05T21:32:11.983Z,31.10
2019-04-05T21:34:41.291Z,19.52
2019-04-05T21:37:10.590Z,26.00
2019-04-05T21:39:39.923Z,27.02
2019-04-05T21:42:09.191Z,21.70
2019-04-05T21:44:38.501Z,27.27
2019-04-05T21:47:09.022Z,27.70
2019-04-05T21:49:38.361Z,24.30
2019-04-05T21:52:07.621Z,20.08
2019-04-05T21:54:47.093Z,22.30
2019-04-05T21:57:08.685Z,25.20
2019-04-05T21:59:37.980Z,21.15
2019-04-05T22:02:07.284Z,24.18
2019-04-05T22:04:36.591Z,22.17
2019-04-05T22:07:05.930Z,24.25
2019-04-05T22:09:35.185Z,24.92
2019-04-05T22:12:14.754Z,25.23
2019-04-05T22:14:44.232Z,27.50
2019-04-05T22:17:13.533Z,22.17
2019-04-05T22:19:42.625Z,24.82
2019-04-05T22:22:14.592Z,23.32
2019-04-05T22:24:43.889Z,23.57
2019-04-05T22:27:13.190Z,26.85
2019-04-05T22:29:42.493Z,26.10
2019-04-05T22:32:11.810Z,22.82
2019-04-05T22:34:41.094Z,23.32
2019-04-05T22:37:10.395Z,20.12
2019-04-05T22:39:39.446Z,20.77
2019-04-05T22:42:08.477Z,22.80
2019-04-05T22:44:40.075Z,23.65
2019-04-05T22:47:08.210Z,24.60
2019-04-05T22:49:39.045Z,24.40
2019-04-05T22:54:36.730Z,22.40
2019-04-05T22:57:06.023Z,23.60
2019-04-05T22:59:35.324Z,22.07
2019-04-05T23:02:05.372Z,21.20
2019-04-05T23:04:34.540Z,18.47
2019-04-05T23:07:03.840Z,21.05
2019-04-05T23:09:33.141Z,17.50
2019-04-05T23:12:02.442Z,19.57
2019-04-05T23:14:31.741Z,25.12
2019-04-05T23:17:01.042Z,20.62
2019-04-05T23:19:30.343Z,21.48
2019-04-05T23:22:00.926Z,22.25
2019-04-05T23:24:30.172Z,24.55
2019-04-05T23:26:59.475Z,30.15
2019-04-05T23:29:28.772Z,24.05
2019-04-05T23:31:58.073Z,23.90
2019-04-05T23:34:27.375Z,20.80
2019-04-05T23:36:56.674Z,21.42
2019-04-05T23:39:25.973Z,20.50
2019-04-05T23:41:55.276Z,20.57
2019-04-05T23:44:24.574Z,20.95
2019-04-05T23:46:54.797Z,22.00
2019-04-05T23:49:24.102Z,20.65
2019-04-05T23:51:53.398Z,21.62
2019-04-05T23:54:22.698Z,26.35
2019-04-05T23:56:51.999Z,21.45
2019-04-05T23:59:21.299Z,22.85
